Time;durP1;ratioP1;P1;durP2;ratioP2;P2;SDS_P1;SDS_P2;PMS_P1;PMS_P2;Temp;Humidity;BMP_temperature;BMP_pressure;BME280_temperature;BME280_humidity;BME280_pressure;Samples;Min_cycle;Max_cycle;Signal;HPM_P1;HPM_P2
2024/01/05 00:01:52;;;;;;;3.33;2.97;;;0.90;81.00;;;;;;5112398;28;20430;-62
2024/01/05 00:04:22;;;;;;;3.07;2.87;;;0.90;81.80;;;;;;5112649;28;20197;-62
2024/01/05 00:06:51;;;;;;;2.50;2.40;;;0.80;80.30;;;;;;5112429;28;20205;-60
2024/01/05 00:09:19;;;;;;;2.73;2.00;;;1.00;80.80;;;;;;5112416;28;20185;-63
2024/01/05 00:11:48;;;;;;;3.77;2.47;;;1.10;78.50;;;;;;5112648;28;20224;-62
2024/01/05 00:14:16;;;;;;;3.63;2.57;;;1.20;77.70;;;;;;5112287;28;20302;-62
2024/01/05 00:16:46;;;;;;;3.43;3.13;;;1.20;77.10;;;;;;5111804;28;20189;-61
2024/01/05 00:19:14;;;;;;;3.47;2.93;;;1.20;78.30;;;;;;5112051;28;20206;-62
2024/01/05 00:21:44;;;;;;;4.30;3.53;;;1.30;77.80;;;;;;5112064;28;20648;-61
2024/01/05 00:24:13;;;;;;;7.13;4.47;;;1.30;78.10;;;;;;5112055;28;20199;-60
2024/01/05 00:26:42;;;;;;;4.87;3.73;;;1.20;77.30;;;;;;5112081;28;20620;-60
2024/01/05 00:29:10;;;;;;;6.57;3.97;;;1.20;77.60;;;;;;5112076;28;20225;-64
2024/01/05 00:31:39;;;;;;;5.33;3.97;;;1.20;77.80;;;;;;5111663;28;20212;-61
2024/01/05 00:34:07;;;;;;;4.77;3.77;;;1.10;78.10;;;;;;5112059;28;20697;-61
2024/01/05 00:36:36;;;;;;;8.70;4.73;;;1.10;78.40;;;;;;5111670;28;20574;-62
2024/01/05 00:39:06;;;;;;;40.73;22.43;;;1.00;80.50;;;;;;5111879;28;20573;-62
2024/01/05 00:41:34;;;;;;;11.47;6.87;;;1.00;85.20;;;;;;5111958;28;20188;-61
2024/01/05 00:44:02;;;;;;;4.83;4.30;;;1.00;83.90;;;;;;5112034;28;20197;-63
2024/01/05 00:46:31;;;;;;;3.53;3.03;;;1.00;83.90;;;;;;5111064;28;20196;-60
2024/01/05 00:48:59;;;;;;;3.13;2.60;;;0.90;83.30;;;;;;5111835;28;20261;-61
2024/01/05 00:51:28;;;;;;;2.77;2.57;;;0.90;87.00;;;;;;5111757;28;20196;-61
2024/01/05 00:53:56;;;;;;;5.07;2.90;;;0.90;85.10;;;;;;5111509;28;20213;-63
2024/01/05 00:56:26;;;;;;;6.17;2.53;;;0.90;85.20;;;;;;5111952;28;20234;-60
2024/01/05 00:58:55;;;;;;;2.80;2.47;;;0.90;86.50;;;;;;5111714;28;20196;-62
2024/01/05 01:01:23;;;;;;;7.77;4.70;;;0.80;87.10;;;;;;5111118;28;20680;-61
2024/01/05 01:03:51;;;;;;;6.17;4.20;;;0.70;88.50;;;;;;5111543;28;20275;-61
2024/01/05 01:06:20;;;;;;;3.13;2.90;;;0.70;90.40;;;;;;5111246;28;20200;-60
2024/01/05 01:08:48;;;;;;;4.57;2.73;;;0.70;89.40;;;;;;5111401;28;20202;-61
2024/01/05 01:11:17;;;;;;;2.57;2.30;;;0.80;87.90;;;;;;5111640;28;20198;-61
2024/01/05 01:13:47;;;;;;;3.33;3.03;;;0.80;87.20;;;;;;5111521;28;20212;-60
2024/01/05 01:16:15;;;;;;;3.23;2.93;;;0.70;89.70;;;;;;5110733;28;20192;-61
2024/01/05 01:18:44;;;;;;;2.67;2.43;;;0.80;90.10;;;;;;5111355;28;20270;-60
2024/01/05 01:21:12;;;;;;;2.97;2.40;;;0.80;90.20;;;;;;5111057;28;20280;-60
2024/01/05 01:23:40;;;;;;;2.17;2.07;;;0.80;90.80;;;;;;5111185;28;20231;-60
2024/01/05 01:26:09;;;;;;;2.20;2.10;;;0.90;90.90;;;;;;5111045;28;20201;-59
2024/01/05 01:28:37;;;;;;;4.03;2.37;;;0.80;89.40;;;;;;5101895;28;20234;-62
2024/01/05 01:31:07;;;;;;;2.67;2.10;;;0.80;90.40;;;;;;5107212;27;20193;-61
2024/01/05 01:33:36;;;;;;;2.00;1.90;;;0.60;90.70;;;;;;5110811;28;20695;-61
2024/01/05 01:36:06;;;;;;;2.33;2.13;;;0.50;91.50;;;;;;5111041;28;20641;-61
2024/01/05 01:38:34;;;;;;;2.27;2.17;;;0.50;92.40;;;;;;5110761;28;20672;-62
2024/01/05 01:41:02;;;;;;;2.73;2.40;;;0.40;91.70;;;;;;5111008;28;20185;-62
2024/01/05 01:43:31;;;;;;;2.70;2.50;;;0.40;94.30;;;;;;5110554;28;20651;-62
2024/01/05 01:46:01;;;;;;;2.77;2.57;;;0.50;95.60;;;;;;5110809;28;20205;-60
2024/01/05 01:48:31;;;;;;;2.53;2.33;;;0.40;98.00;;;;;;5110448;28;20239;-60
2024/01/05 01:51:00;;;;;;;2.83;2.63;;;0.40;99.90;;;;;;5110635;28;20596;-65
2024/01/05 01:53:29;;;;;;;4.83;2.90;;;0.60;99.90;;;;;;5110490;28;21032;-60
2024/01/05 01:55:57;;;;;;;2.90;2.70;;;0.70;99.90;;;;;;5110400;28;20189;-62
2024/01/05 01:58:27;;;;;;;4.03;3.57;;;0.80;99.90;;;;;;5109574;28;20288;-61
2024/01/05 02:00:55;;;;;;;3.70;3.13;;;0.70;99.90;;;;;;5107763;28;20806;-60
2024/01/05 02:03:23;;;;;;;2.63;2.43;;;0.80;99.90;;;;;;5106559;28;20193;-61
2024/01/05 02:05:54;;;;;;;3.00;2.10;;;0.60;99.90;;;;;;5108830;28;20200;-62
2024/01/05 02:08:22;;;;;;;2.57;2.37;;;0.50;99.90;;;;;;5110264;28;20285;-62
2024/01/05 02:10:51;;;;;;;2.67;2.10;;;0.40;99.90;;;;;;5110005;28;20197;-61
2024/01/05 02:13:19;;;;;;;2.57;2.33;;;0.40;99.90;;;;;;5109551;28;20207;-61
2024/01/05 02:15:47;;;;;;;2.50;2.30;;;0.30;99.90;;;;;;5109757;28;20567;-62
2024/01/05 02:18:16;;;;;;;2.53;2.30;;;0.20;99.90;;;;;;5109770;28;20658;-62
2024/01/05 02:20:46;;;;;;;2.73;2.53;;;0.30;99.90;;;;;;5109657;28;20210;-62
2024/01/05 02:23:22;;;;;;;3.70;2.40;;;0.30;99.90;;;;;;5109621;28;20194;-62
2024/01/05 02:25:51;;;;;;;3.67;2.77;;;0.20;99.90;;;;;;5089259;28;20205;-59
2024/01/05 02:28:20;;;;;;;3.00;2.80;;;0.20;99.90;;;;;;5088772;28;20243;-60
2024/01/05 02:30:48;;;;;;;2.60;2.40;;;0.10;99.90;;;;;;5089417;28;20193;-63
2024/01/05 02:33:17;;;;;;;3.40;2.67;;;0.10;99.90;;;;;;5070822;28;20205;-63
2024/01/05 02:35:45;;;;;;;2.67;2.47;;;0.00;99.90;;;;;;5089377;28;20304;-66
2024/01/05 02:38:14;;;;;;;2.90;2.30;;;0.10;99.90;;;;;;5088967;28;20201;-65
2024/01/05 02:40:43;;;;;;;2.60;2.40;;;0.10;99.90;;;;;;5088568;28;20233;-63
2024/01/05 02:43:12;;;;;;;3.83;3.00;;;0.00;99.90;;;;;;5088836;28;20197;-63
2024/01/05 02:45:40;;;;;;;2.80;2.57;;;0.10;99.90;;;;;;5088882;28;20193;-65
2024/01/05 02:48:09;;;;;;;6.13;3.20;;;0.10;99.90;;;;;;5088597;28;20194;-64
2024/01/05 02:50:38;;;;;;;2.93;2.73;;;0.30;99.90;;;;;;5088592;28;20609;-64
2024/01/05 02:53:06;;;;;;;2.50;2.40;;;0.40;99.90;;;;;;5088576;28;20197;-65
2024/01/05 02:55:34;;;;;;;3.23;2.80;;;0.50;99.90;;;;;;5088755;28;20276;-64
2024/01/05 02:58:05;;;;;;;3.00;2.80;;;0.60;99.90;;;;;;5088721;28;20201;-64
2024/01/05 03:00:33;;;;;;;2.73;2.50;;;0.60;99.90;;;;;;5088728;28;20217;-64
2024/01/05 03:03:01;;;;;;;4.03;2.90;;;0.70;99.90;;;;;;5088579;28;20243;-63
2024/01/05 03:05:30;;;;;;;2.47;2.27;;;0.60;99.90;;;;;;5088751;28;20200;-64
2024/01/05 03:07:58;;;;;;;2.60;2.40;;;0.60;99.90;;;;;;5088629;28;20702;-63
2024/01/05 03:10:26;;;;;;;2.30;2.20;;;0.50;99.90;;;;;;5088677;28;20194;-64
2024/01/05 03:12:55;;;;;;;1.93;1.83;;;0.60;99.90;;;;;;5088558;28;20259;-63
2024/01/05 03:15:24;;;;;;;2.67;2.47;;;0.50;99.90;;;;;;5088394;28;20588;-63
2024/01/05 03:17:53;;;;;;;2.50;2.37;;;0.70;99.90;;;;;;5090527;28;20737;-62
2024/01/05 03:20:21;;;;;;;2.90;2.70;;;0.70;99.90;;;;;;5092139;28;20581;-64
2024/01/05 03:22:49;;;;;;;3.47;2.10;;;0.70;99.90;;;;;;5092511;28;20667;-63
2024/01/05 03:25:18;;;;;;;2.27;2.13;;;0.90;99.90;;;;;;5092347;28;20192;-62
2024/01/05 03:27:46;;;;;;;3.87;2.60;;;0.90;99.90;;;;;;5092384;28;20199;-63
2024/01/05 03:30:14;;;;;;;3.63;2.63;;;0.90;99.90;;;;;;5092261;28;20692;-63
2024/01/05 03:32:44;;;;;;;2.97;2.67;;;1.00;99.90;;;;;;5092210;28;20193;-63
2024/01/05 03:35:13;;;;;;;3.07;2.87;;;1.00;99.90;;;;;;5092252;28;20247;-64
2024/01/05 03:37:41;;;;;;;3.67;2.40;;;0.90;99.90;;;;;;5092186;28;20205;-64
2024/01/05 03:40:10;;;;;;;2.90;2.67;;;0.90;99.90;;;;;;5092145;28;20603;-62
2024/01/05 03:42:38;;;;;;;6.27;3.37;;;0.90;99.90;;;;;;5092110;28;20190;-62
2024/01/05 03:45:08;;;;;;;6.23;2.90;;;0.90;99.90;;;;;;5092236;28;20189;-63
2024/01/05 03:47:36;;;;;;;2.80;2.03;;;0.90;99.90;;;;;;5091841;28;20755;-65
2024/01/05 03:50:08;;;;;;;3.40;2.83;;;0.90;99.90;;;;;;5091879;28;20198;-62
2024/01/05 03:52:37;;;;;;;2.20;2.10;;;1.00;99.90;;;;;;5091825;28;20221;-63
2024/01/05 03:55:06;;;;;;;3.03;2.43;;;0.90;99.90;;;;;;5091730;28;20230;-64
2024/01/05 03:57:34;;;;;;;2.50;2.30;;;0.90;99.90;;;;;;5091699;28;20273;-62
2024/01/05 04:00:03;;;;;;;5.27;2.90;;;0.90;99.90;;;;;;5091690;28;20199;-64
2024/01/05 04:02:32;;;;;;;3.20;2.83;;;0.80;99.90;;;;;;5091445;28;20202;-63
2024/01/05 04:05:00;;;;;;;5.70;3.80;;;0.90;99.90;;;;;;5091595;28;20205;-60
2024/01/05 04:07:30;;;;;;;3.13;2.83;;;1.00;99.90;;;;;;5091487;28;20193;-62
2024/01/05 04:09:58;;;;;;;3.63;2.80;;;0.90;99.70;;;;;;5091394;28;20201;-61
2024/01/05 04:12:27;;;;;;;2.77;2.47;;;0.80;99.70;;;;;;5091479;28;20201;-60
2024/01/05 04:14:55;;;;;;;2.80;2.60;;;0.90;99.90;;;;;;5091241;28;20238;-63
2024/01/05 04:17:23;;;;;;;2.70;2.50;;;0.90;99.20;;;;;;5091139;28;20197;-64
2024/01/05 04:19:52;;;;;;;2.97;2.60;;;0.90;99.40;;;;;;5091214;28;20246;-64
2024/01/05 04:22:20;;;;;;;4.53;2.70;;;0.80;98.60;;;;;;5091213;28;20201;-62
2024/01/05 04:24:50;;;;;;;4.63;3.17;;;0.90;98.50;;;;;;5091244;28;20198;-63
2024/01/05 04:27:18;;;;;;;4.10;3.10;;;0.90;99.40;;;;;;5091371;28;20553;-63
2024/01/05 04:29:47;;;;;;;5.23;2.93;;;0.90;98.00;;;;;;5110657;28;20306;-63
2024/01/05 04:32:15;;;;;;;3.50;2.47;;;1.00;97.10;;;;;;5111319;28;20311;-61
2024/01/05 04:34:43;;;;;;;3.70;2.67;;;0.90;96.80;;;;;;5111424;28;20190;-64
2024/01/05 04:37:12;;;;;;;2.77;2.57;;;0.60;97.70;;;;;;5111262;28;20200;-63
2024/01/05 04:39:43;;;;;;;3.33;2.40;;;0.70;99.90;;;;;;5111013;28;20241;-63
2024/01/05 04:42:13;;;;;;;3.57;2.30;;;0.80;99.90;;;;;;5111277;28;20220;-62
2024/01/05 04:44:41;;;;;;;2.37;2.27;;;0.80;99.30;;;;;;5111306;28;20587;-62
2024/01/05 04:47:10;;;;;;;2.90;2.60;;;0.80;99.50;;;;;;5110923;28;20215;-64
2024/01/05 04:49:38;;;;;;;2.03;1.90;;;0.60;99.90;;;;;;5110829;28;20196;-62
2024/01/05 04:52:07;;;;;;;2.23;2.10;;;0.60;99.90;;;;;;5110848;28;20602;-63
2024/01/05 04:54:35;;;;;;;3.00;2.13;;;0.60;99.90;;;;;;5110923;28;20279;-64
2024/01/05 04:57:04;;;;;;;3.30;3.03;;;0.50;99.90;;;;;;5110751;28;20683;-63
2024/01/05 04:59:34;;;;;;;2.53;2.33;;;0.30;99.90;;;;;;5111057;28;20227;-61
2024/01/05 05:02:02;;;;;;;4.47;2.70;;;0.30;99.90;;;;;;5110812;27;20335;-62
2024/01/05 05:04:30;;;;;;;3.20;2.50;;;0.40;99.90;;;;;;5110822;28;20612;-61
2024/01/05 05:06:59;;;;;;;3.30;2.20;;;0.50;99.90;;;;;;5110655;28;20920;-64
2024/01/05 05:09:27;;;;;;;2.53;2.40;;;0.60;99.90;;;;;;5110753;28;20278;-61
2024/01/05 05:11:55;;;;;;;2.80;2.53;;;0.70;99.90;;;;;;5110480;28;20202;-62
2024/01/05 05:14:23;;;;;;;2.33;2.20;;;0.70;99.90;;;;;;5110713;28;20212;-62
2024/01/05 05:16:53;;;;;;;2.80;2.60;;;0.70;99.70;;;;;;5110587;28;20274;-63
2024/01/05 05:19:21;;;;;;;2.37;2.17;;;0.60;99.90;;;;;;5110361;28;20196;-63
2024/01/05 05:21:50;;;;;;;2.60;2.40;;;0.60;99.90;;;;;;5110317;28;20247;-64
2024/01/05 05:24:18;;;;;;;2.33;2.23;;;0.50;99.50;;;;;;5110290;28;20680;-63
2024/01/05 05:26:47;;;;;;;3.37;2.43;;;0.50;99.90;;;;;;5110465;28;20222;-63
2024/01/05 05:29:15;;;;;;;2.40;2.30;;;0.50;99.90;;;;;;5110273;28;20193;-63
2024/01/05 05:31:43;;;;;;;3.97;3.00;;;0.60;99.90;;;;;;5110420;28;20212;-64
2024/01/05 05:34:13;;;;;;;3.60;3.30;;;0.70;99.90;;;;;;5110234;28;20196;-63
2024/01/05 05:36:42;;;;;;;9.43;4.33;;;0.70;99.90;;;;;;5110114;28;20240;-62
2024/01/05 05:39:10;;;;;;;5.83;4.27;;;0.70;99.10;;;;;;5109975;28;20577;-63
2024/01/05 05:41:39;;;;;;;7.10;4.37;;;0.70;97.70;;;;;;5109241;28;20248;-63
2024/01/05 05:44:07;;;;;;;4.43;3.70;;;0.80;99.60;;;;;;5110076;28;20208;-63
2024/01/05 05:46:35;;;;;;;5.00;3.43;;;0.80;99.50;;;;;;5110010;28;20188;-61
2024/01/05 05:49:04;;;;;;;5.83;4.20;;;0.80;98.60;;;;;;5109716;28;20192;-62
2024/01/05 05:51:34;;;;;;;6.97;4.90;;;0.80;96.10;;;;;;5109693;28;20197;-62
2024/01/05 05:54:03;;;;;;;4.63;3.77;;;0.60;96.80;;;;;;5109760;27;20203;-63
2024/01/05 05:56:31;;;;;;;4.33;2.80;;;0.50;96.40;;;;;;5109770;28;20347;-62
2024/01/05 05:58:59;;;;;;;3.87;2.90;;;0.40;96.60;;;;;;5109741;28;20191;-61
2024/01/05 06:01:28;;;;;;;4.10;3.00;;;0.40;96.80;;;;;;5109679;28;20703;-63
2024/01/05 06:03:56;;;;;;;2.80;2.60;;;0.20;97.90;;;;;;5109414;28;20221;-62
2024/01/05 06:06:25;;;;;;;2.70;2.50;;;0.10;99.20;;;;;;5109555;28;20206;-63
2024/01/05 06:08:54;;;;;;;3.83;2.70;;;0.00;98.10;;;;;;5109318;28;20951;-62
2024/01/05 06:11:26;;;;;;;3.13;2.93;;;0.00;98.70;;;;;;5109650;28;20197;-63
2024/01/05 06:13:56;;;;;;;4.40;3.20;;;0.00;99.30;;;;;;5109425;28;20735;-60
2024/01/05 06:16:24;;;;;;;3.77;2.97;;;0.00;99.90;;;;;;5109387;28;20221;-63
2024/01/05 06:18:52;;;;;;;4.13;3.20;;;0.10;98.90;;;;;;5109241;28;20193;-63
2024/01/05 06:21:21;;;;;;;6.13;4.30;;;0.20;99.20;;;;;;5108979;28;20274;-64
2024/01/05 06:23:49;;;;;;;7.97;5.30;;;0.30;99.10;;;;;;5109683;28;20207;-62
2024/01/05 06:26:19;;;;;;;13.07;8.70;;;0.40;99.30;;;;;;5109247;28;20201;-63
2024/01/05 06:28:47;;;;;;;30.50;16.43;;;0.50;98.60;;;;;;5109354;28;20190;-63
2024/01/05 06:31:16;;;;;;;33.70;24.80;;;0.60;98.20;;;;;;5109123;27;20205;-63
2024/01/05 06:33:44;;;;;;;30.97;23.60;;;0.60;96.40;;;;;;5109209;28;20317;-61
2024/01/05 06:36:12;;;;;;;19.90;17.23;;;0.60;96.50;;;;;;5109251;28;20228;-62
2024/01/05 06:38:41;;;;;;;14.50;9.40;;;0.60;96.80;;;;;;5108938;28;20221;-63
2024/01/05 06:41:09;;;;;;;74.33;36.23;;;0.50;96.50;;;;;;5109119;28;20201;-63
2024/01/05 06:43:39;;;;;;;9.63;7.67;;;0.50;96.70;;;;;;5108744;28;20202;-64
2024/01/05 06:46:07;;;;;;;5.13;4.33;;;0.50;97.90;;;;;;5108960;28;20274;-63
2024/01/05 06:48:36;;;;;;;5.53;3.43;;;0.50;98.00;;;;;;5108866;28;21181;-63
2024/01/05 06:51:05;;;;;;;4.33;3.70;;;0.50;97.20;;;;;;5108900;28;20268;-63
2024/01/05 06:53:33;;;;;;;8.13;4.47;;;0.50;96.40;;;;;;5108666;28;20201;-62
2024/01/05 06:56:01;;;;;;;4.67;4.23;;;0.60;96.70;;;;;;5108921;28;20209;-63
2024/01/05 06:58:31;;;;;;;4.37;3.97;;;0.50;96.80;;;;;;5108939;28;20609;-64
2024/01/05 07:01:02;;;;;;;4.90;3.70;;;0.50;96.60;;;;;;5108792;28;20192;-63
2024/01/05 07:03:30;;;;;;;5.17;3.93;;;0.50;94.90;;;;;;5108822;28;20189;-63
2024/01/05 07:05:58;;;;;;;5.43;4.30;;;0.40;94.00;;;;;;5108863;28;20196;-63
2024/01/05 07:08:27;;;;;;;5.37;4.60;;;0.50;95.30;;;;;;5109090;28;20204;-64
2024/01/05 07:10:55;;;;;;;7.13;4.77;;;0.40;93.80;;;;;;5108798;28;20558;-63
2024/01/05 07:13:23;;;;;;;15.00;8.50;;;0.50;94.90;;;;;;5108885;28;20224;-64
2024/01/05 07:15:52;;;;;;;7.77;5.10;;;0.60;94.60;;;;;;5109022;28;20197;-64
2024/01/05 07:18:21;;;;;;;5.83;4.67;;;0.60;93.80;;;;;;5108697;28;20232;-64
2024/01/05 07:20:50;;;;;;;4.67;4.10;;;0.70;92.40;;;;;;5108850;28;20208;-64
2024/01/05 07:23:18;;;;;;;7.30;4.30;;;0.70;92.80;;;;;;5109002;28;20201;-63
2024/01/05 07:25:46;;;;;;;5.43;4.00;;;0.70;91.80;;;;;;5108877;28;20200;-61
2024/01/05 07:28:14;;;;;;;5.37;4.07;;;0.50;92.10;;;;;;5108796;28;20195;-62
2024/01/05 07:30:43;;;;;;;4.43;3.47;;;0.50;93.50;;;;;;5108874;28;20955;-63
2024/01/05 07:33:11;;;;;;;3.90;3.50;;;0.50;93.80;;;;;;5108818;28;20214;-61
2024/01/05 07:35:41;;;;;;;8.17;6.00;;;0.50;93.20;;;;;;5108524;28;20207;-61
2024/01/05 07:38:09;;;;;;;3.87;3.57;;;0.50;94.50;;;;;;5108431;28;20257;-63
2024/01/05 07:40:38;;;;;;;5.77;3.37;;;0.40;94.30;;;;;;5108113;28;20639;-62
2024/01/05 07:43:07;;;;;;;9.97;5.43;;;0.30;94.80;;;;;;5108653;28;20201;-63
2024/01/05 07:45:36;;;;;;;8.97;5.50;;;0.10;97.00;;;;;;5108704;28;20208;-61
2024/01/05 07:48:05;;;;;;;10.50;7.17;;;0.30;98.90;;;;;;5108433;28;20665;-62
2024/01/05 07:50:33;;;;;;;14.73;6.63;;;0.30;99.60;;;;;;5107973;28;20201;-61
2024/01/05 07:53:04;;;;;;;8.37;6.20;;;0.50;99.10;;;;;;5108385;28;20600;-62
2024/01/05 07:55:32;;;;;;;8.43;6.63;;;0.50;98.30;;;;;;5108343;28;20200;-63
2024/01/05 07:58:01;;;;;;;8.83;5.70;;;0.40;98.20;;;;;;5108365;28;20240;-62
2024/01/05 08:00:31;;;;;;;6.40;5.03;;;0.40;99.40;;;;;;5108451;28;20196;-64
2024/01/05 08:03:01;;;;;;;8.97;6.57;;;0.40;97.70;;;;;;5108195;28;20233;-63
2024/01/05 08:05:29;;;;;;;9.93;6.40;;;0.40;98.50;;;;;;5111252;28;20193;-63
2024/01/05 08:07:58;;;;;;;9.90;5.30;;;0.50;98.80;;;;;;5112066;28;20282;-62
2024/01/05 08:10:29;;;;;;;7.90;5.23;;;0.60;96.90;;;;;;5112106;28;20200;-60
2024/01/05 08:12:58;;;;;;;9.47;5.53;;;0.50;95.30;;;;;;5110408;28;20208;-61
2024/01/05 08:15:26;;;;;;;7.23;5.50;;;0.50;94.90;;;;;;5112218;28;20191;-62
2024/01/05 08:17:55;;;;;;;8.70;6.63;;;0.50;94.90;;;;;;5112079;28;20249;-62
2024/01/05 08:20:23;;;;;;;9.67;5.30;;;0.50;95.50;;;;;;5111907;28;20275;-62
2024/01/05 08:22:51;;;;;;;9.03;5.57;;;0.60;93.70;;;;;;5112155;28;20196;-64
2024/01/05 08:25:20;;;;;;;9.40;6.30;;;0.70;94.60;;;;;;5111825;28;20564;-62
2024/01/05 08:27:52;;;;;;;7.40;5.80;;;0.80;93.60;;;;;;5112187;28;20281;-62
2024/01/05 08:30:20;;;;;;;12.47;7.10;;;0.80;94.30;;;;;;5111888;28;20205;-62
2024/01/05 08:32:54;;;;;;;10.80;7.37;;;0.80;94.70;;;;;;5116164;27;20237;-62
2024/01/05 08:35:23;;;;;;;13.03;7.93;;;0.80;94.90;;;;;;5127014;27;20200;-63
2024/01/05 08:37:51;;;;;;;8.90;6.50;;;0.90;94.40;;;;;;5132819;27;20214;-62
2024/01/05 08:40:20;;;;;;;7.23;5.43;;;0.80;92.90;;;;;;5132395;27;20256;-61
2024/01/05 08:42:48;;;;;;;5.60;4.63;;;0.90;93.70;;;;;;5131889;27;20570;-59
2024/01/05 08:45:19;;;;;;;5.67;4.57;;;0.90;91.00;;;;;;5110682;28;20201;-59
2024/01/05 08:47:47;;;;;;;4.37;3.37;;;0.90;89.90;;;;;;5111368;28;20300;-60
2024/01/05 08:50:17;;;;;;;4.17;3.77;;;0.80;88.80;;;;;;5111646;28;20410;-59
2024/01/05 08:52:46;;;;;;;4.70;4.20;;;0.70;90.40;;;;;;5111347;27;20200;-61
2024/01/05 08:55:15;;;;;;;7.67;3.47;;;0.80;91.40;;;;;;5108393;28;20194;-61
2024/01/05 08:57:43;;;;;;;4.57;3.53;;;0.80;90.90;;;;;;5102918;28;20213;-61
2024/01/05 09:00:12;;;;;;;6.70;4.33;;;0.70;91.60;;;;;;5110970;28;20195;-60
2024/01/05 09:02:42;;;;;;;6.50;4.10;;;0.60;91.00;;;;;;5110488;28;20194;-60
2024/01/05 09:05:10;;;;;;;4.77;3.63;;;0.50;93.80;;;;;;5110502;28;20215;-60
2024/01/05 09:07:39;;;;;;;5.30;4.20;;;0.60;92.70;;;;;;5110751;28;20198;-61
2024/01/05 09:10:09;;;;;;;4.13;3.73;;;0.60;92.50;;;;;;5110501;28;20217;-60
2024/01/05 09:12:38;;;;;;;7.43;5.23;;;0.70;90.90;;;;;;5110589;28;20213;-61
2024/01/05 09:15:09;;;;;;;9.43;6.93;;;0.70;90.80;;;;;;5110198;28;20199;-61
2024/01/05 09:17:37;;;;;;;12.77;6.60;;;0.80;91.90;;;;;;5110488;28;20214;-60
2024/01/05 09:20:08;;;;;;;13.60;7.33;;;0.80;90.50;;;;;;5110167;28;20204;-58
2024/01/05 09:22:37;;;;;;;11.10;7.23;;;0.70;91.10;;;;;;5110380;28;20401;-60
2024/01/05 09:25:07;;;;;;;14.33;7.97;;;0.90;91.60;;;;;;5110355;28;20198;-60
2024/01/05 09:27:36;;;;;;;19.00;9.50;;;1.00;91.90;;;;;;5110231;28;20613;-61
2024/01/05 09:30:06;;;;;;;13.33;8.23;;;1.10;90.40;;;;;;5110261;28;20221;-59
2024/01/05 09:32:35;;;;;;;17.67;9.13;;;1.10;86.20;;;;;;5109957;28;20197;-59
2024/01/05 09:35:04;;;;;;;16.80;8.73;;;1.10;87.30;;;;;;5109909;28;20313;-60
2024/01/05 09:37:33;;;;;;;15.57;8.57;;;1.00;88.20;;;;;;5109968;28;20186;-61
2024/01/05 09:40:02;;;;;;;14.73;8.30;;;0.90;88.40;;;;;;5109726;28;20225;-62
2024/01/05 09:42:30;;;;;;;12.87;8.93;;;1.10;87.50;;;;;;5109779;28;20236;-61
2024/01/05 09:45:01;;;;;;;11.63;7.23;;;1.10;87.00;;;;;;5109761;28;20205;-61
2024/01/05 09:47:29;;;;;;;18.20;10.50;;;1.00;85.70;;;;;;5109873;28;20197;-60
2024/01/05 09:50:00;;;;;;;7.07;5.37;;;0.90;87.10;;;;;;5109543;28;20249;-62
2024/01/05 09:52:29;;;;;;;8.87;6.67;;;0.80;87.00;;;;;;5109727;28;20682;-61
2024/01/05 09:54:59;;;;;;;10.03;5.53;;;0.80;89.80;;;;;;5109778;28;20348;-61
2024/01/05 09:57:28;;;;;;;8.37;6.47;;;0.70;88.40;;;;;;5109644;28;20188;-62
2024/01/05 09:59:58;;;;;;;9.87;6.77;;;0.80;90.20;;;;;;5109622;28;20224;-60
2024/01/05 10:02:32;;;;;;;12.73;7.17;;;1.00;90.80;;;;;;5109787;28;20655;-59
2024/01/05 10:05:01;;;;;;;15.40;8.90;;;0.90;90.80;;;;;;5109452;28;20196;-60
2024/01/05 10:07:29;;;;;;;9.40;6.63;;;1.10;89.60;;;;;;5109810;28;20195;-60
2024/01/05 10:09:59;;;;;;;10.07;7.13;;;1.00;90.30;;;;;;5109576;28;20216;-61
2024/01/05 10:12:27;;;;;;;9.63;6.07;;;1.00;91.50;;;;;;5109551;28;20295;-59
2024/01/05 10:15:04;;;;;;;15.57;8.53;;;0.90;91.40;;;;;;5109355;28;20200;-61
2024/01/05 10:17:32;;;;;;;12.27;6.57;;;0.90;91.30;;;;;;5109636;28;20193;-63
2024/01/05 10:20:14;;;;;;;12.13;6.93;;;0.90;90.80;;;;;;5108818;28;20224;-62
2024/01/05 10:22:43;;;;;;;13.87;7.83;;;0.90;90.80;;;;;;5109389;28;20574;-64
2024/01/05 10:25:17;;;;;;;12.23;7.40;;;0.90;91.70;;;;;;5109270;28;20637;-62
2024/01/05 10:27:50;;;;;;;12.07;7.23;;;0.80;92.00;;;;;;5108900;28;20188;-61
2024/01/05 10:30:30;;;;;;;12.10;6.80;;;0.70;92.40;;;;;;5109101;28;20299;-63
2024/01/05 10:33:06;;;;;;;9.77;6.40;;;0.70;92.60;;;;;;5109000;28;20201;-61
2024/01/05 10:35:35;;;;;;;8.63;6.30;;;0.80;92.20;;;;;;5108817;28;20357;-62
2024/01/05 10:38:05;;;;;;;9.93;6.10;;;0.90;92.50;;;;;;5108887;28;20188;-61
2024/01/05 10:40:35;;;;;;;9.17;6.77;;;1.00;91.70;;;;;;5108805;28;20247;-61
2024/01/05 10:43:11;;;;;;;9.20;6.10;;;1.10;91.30;;;;;;5108635;28;20671;-60
2024/01/05 10:45:41;;;;;;;6.73;5.20;;;1.10;90.10;;;;;;5108998;28;20199;-61
2024/01/05 10:48:11;;;;;;;8.57;5.63;;;1.20;89.10;;;;;;5108954;28;20208;-61
2024/01/05 10:50:41;;;;;;;8.70;5.93;;;1.30;88.20;;;;;;5108729;28;20288;-61
2024/01/05 10:53:10;;;;;;;8.77;5.83;;;1.30;88.00;;;;;;5108895;28;20201;-62
2024/01/05 10:55:42;;;;;;;7.47;6.10;;;1.30;84.50;;;;;;5108708;28;20965;-61
2024/01/05 10:58:11;;;;;;;10.30;6.60;;;1.30;87.20;;;;;;5108625;28;20578;-61
2024/01/05 11:00:41;;;;;;;7.23;5.83;;;1.40;86.10;;;;;;5108653;28;20199;-62
2024/01/05 11:03:13;;;;;;;8.40;6.00;;;1.50;87.40;;;;;;5108812;28;20197;-63
2024/01/05 11:05:42;;;;;;;8.30;5.67;;;1.30;84.90;;;;;;5090202;28;20200;-61
2024/01/05 11:08:24;;;;;;;19.23;7.17;;;1.40;84.80;;;;;;5108724;28;20674;-64
2024/01/05 11:11:07;;;;;;;10.57;6.03;;;1.60;83.80;;;;;;5108975;28;20549;-63
2024/01/05 11:13:49;;;;;;;10.07;7.33;;;1.50;82.30;;;;;;5108401;28;20194;-64
2024/01/05 11:16:52;;;;;;;11.27;6.57;;;1.60;84.50;;;;;;5108858;28;20277;-63
2024/01/05 11:19:38;;;;;;;9.73;7.00;;;1.50;81.30;;;;;;5108439;28;20230;-61
2024/01/05 11:22:10;;;;;;;9.63;6.40;;;1.30;81.80;;;;;;5108527;28;20374;-60
2024/01/05 11:24:40;;;;;;;9.77;6.77;;;1.10;83.00;;;;;;5108403;28;20204;-62
2024/01/05 11:27:31;;;;;;;11.10;6.70;;;1.00;83.50;;;;;;5108486;28;20296;-62
2024/01/05 11:30:00;;;;;;;10.97;7.23;;;1.20;82.90;;;;;;5108757;28;20308;-62
2024/01/05 11:32:38;;;;;;;11.00;6.80;;;0.80;84.90;;;;;;5108582;28;20201;-62
2024/01/05 11:35:42;;;;;;;10.40;6.33;;;0.90;86.50;;;;;;5108440;28;20259;-60
2024/01/05 11:38:30;;;;;;;8.40;6.17;;;0.80;87.10;;;;;;5108454;28;20199;-62
2024/01/05 11:40:58;;;;;;;14.53;9.27;;;0.90;88.50;;;;;;5112184;28;20264;-60
2024/01/05 11:43:36;;;;;;;11.57;6.83;;;1.10;87.20;;;;;;5112204;28;20618;-61
2024/01/05 11:46:06;;;;;;;10.50;6.90;;;1.10;84.40;;;;;;5112268;28;20235;-60
2024/01/05 11:48:51;;;;;;;18.10;11.27;;;1.10;86.00;;;;;;5112098;28;20196;-62
2024/01/05 11:51:23;;;;;;;11.13;7.33;;;1.50;85.00;;;;;;5111809;28;20243;-60
2024/01/05 11:53:54;;;;;;;9.97;6.47;;;1.80;82.60;;;;;;5094751;28;20201;-61
2024/01/05 11:56:25;;;;;;;12.97;7.07;;;1.50;78.20;;;;;;5111878;28;20208;-63
2024/01/05 11:58:55;;;;;;;8.10;5.93;;;1.30;81.20;;;;;;5112012;28;20674;-65
2024/01/05 12:01:25;;;;;;;10.67;7.33;;;1.20;80.60;;;;;;5111858;28;20266;-61
2024/01/05 12:03:54;;;;;;;10.63;7.50;;;1.10;82.00;;;;;;5112093;28;20262;-61
2024/01/05 12:06:23;;;;;;;10.73;7.13;;;1.20;83.70;;;;;;5112478;28;20198;-60
2024/01/05 12:08:52;;;;;;;8.50;6.57;;;1.20;82.00;;;;;;5112095;28;20608;-61
2024/01/05 12:11:21;;;;;;;10.03;6.80;;;1.10;81.60;;;;;;5111787;28;20221;-60
2024/01/05 12:13:49;;;;;;;10.70;7.00;;;1.10;82.80;;;;;;5112020;28;20201;-60
2024/01/05 12:16:24;;;;;;;9.27;6.97;;;1.10;83.70;;;;;;5111677;28;20196;-63
2024/01/05 12:18:52;;;;;;;12.13;8.73;;;1.00;83.70;;;;;;5111790;28;20191;-61
2024/01/05 12:21:22;;;;;;;12.53;6.83;;;0.90;85.90;;;;;;5111366;28;20188;-61
2024/01/05 12:23:53;;;;;;;11.03;7.47;;;0.80;86.30;;;;;;5111630;28;20200;-64
2024/01/05 12:26:22;;;;;;;13.77;7.87;;;0.80;86.90;;;;;;5111167;28;20200;-61
2024/01/05 12:28:51;;;;;;;10.17;7.17;;;0.90;88.80;;;;;;5111772;28;20225;-61
2024/01/05 12:31:21;;;;;;;12.70;8.17;;;1.10;85.80;;;;;;5111515;28;20679;-62
2024/01/05 12:33:51;;;;;;;13.57;8.40;;;1.20;87.80;;;;;;5111152;28;20660;-61
2024/01/05 12:36:28;;;;;;;14.20;8.63;;;1.40;84.40;;;;;;5111146;28;20297;-61
2024/01/05 12:39:10;;;;;;;18.03;10.10;;;1.50;84.40;;;;;;5111049;28;20198;-61
2024/01/05 12:41:42;;;;;;;13.20;8.70;;;1.50;83.80;;;;;;5111321;28;20192;-61
2024/01/05 12:44:10;;;;;;;17.90;9.00;;;1.70;83.80;;;;;;5111027;28;21017;-61
2024/01/05 12:46:46;;;;;;;16.23;9.27;;;1.80;82.30;;;;;;5110882;28;20235;-62
2024/01/05 12:49:21;;;;;;;16.13;9.90;;;1.90;81.10;;;;;;5110969;28;20197;-61
2024/01/05 12:51:50;;;;;;;18.27;11.00;;;1.90;81.50;;;;;;5110687;28;20239;-61
2024/01/05 12:54:20;;;;;;;17.43;10.13;;;1.80;80.30;;;;;;5111133;28;20199;-62
2024/01/05 12:56:50;;;;;;;18.73;9.87;;;1.60;81.00;;;;;;5110798;28;20202;-62
2024/01/05 12:59:20;;;;;;;17.17;9.53;;;1.30;81.40;;;;;;5110724;28;20193;-61
2024/01/05 13:01:58;;;;;;;19.00;10.80;;;1.20;83.60;;;;;;5110776;28;20221;-60
2024/01/05 13:04:30;;;;;;;19.73;10.87;;;1.30;83.80;;;;;;5110702;28;20208;-60
2024/01/05 13:07:02;;;;;;;22.20;11.17;;;1.20;83.10;;;;;;5110328;28;20193;-61